createdAt,value
2018-06-11T00:01:31.846Z,98415.92
2018-06-11T00:04:00.357Z,98414.91
2018-06-11T00:06:28.869Z,98438.25
2018-06-11T00:08:57.530Z,98418.97
2018-06-11T00:11:25.993Z,98427.09
2018-06-11T00:13:54.453Z,98462.61
2018-06-11T00:16:22.961Z,98482.91
2018-06-11T00:18:51.489Z,98487.98
2018-06-11T00:21:20.038Z,98484.94
2018-06-11T00:23:48.555Z,98460.58
2018-06-11T00:26:17.170Z,98438.25
2018-06-11T00:28:45.761Z,98476.81
2018-06-11T00:31:14.330Z,98473.77
2018-06-11T00:33:42.818Z,98499.14
2018-06-11T00:36:11.314Z,98466.67
2018-06-11T00:38:39.789Z,98484.94
2018-06-11T00:41:08.685Z,98503.20
2018-06-11T00:43:37.182Z,98528.57
2018-06-11T00:46:05.698Z,98528.57
2018-06-11T00:48:34.214Z,98547.86
2018-06-11T00:51:02.761Z,98540.75
2018-06-11T00:53:31.232Z,98575.26
2018-06-11T00:56:07.169Z,98518.42
2018-06-11T00:58:35.775Z,98513.34
2018-06-11T01:01:05.233Z,98555.97
2018-06-11T01:03:33.736Z,98533.65
2018-06-11T01:06:02.222Z,98580.33
2018-06-11T01:08:30.728Z,98530.61
2018-06-11T01:10:59.274Z,98546.84
2018-06-11T01:13:27.756Z,98596.56
2018-06-11T01:15:56.222Z,98586.42
2018-06-11T01:18:24.779Z,98582.36
2018-06-11T01:20:53.254Z,98564.09
2018-06-11T01:23:21.830Z,98599.61
2018-06-11T01:25:50.340Z,98639.19
2018-06-11T01:28:18.840Z,98612.80
2018-06-11T01:30:47.353Z,98602.66
2018-06-11T01:33:15.939Z,98604.69
2018-06-11T01:35:44.421Z,98641.22
2018-06-11T01:38:13.033Z,98631.08
2018-06-11T01:40:41.502Z,98669.64
2018-06-11T01:43:09.992Z,98718.36
2018-06-11T01:45:38.492Z,98739.67
2018-06-11T01:48:06.956Z,98710.23
2018-06-11T01:50:35.874Z,98682.83
2018-06-11T01:53:04.371Z,98725.46
2018-06-11T01:55:32.832Z,98712.27
2018-06-11T01:58:01.342Z,98753.88
2018-06-11T02:00:29.810Z,98763.02
2018-06-11T02:02:58.260Z,98775.19
2018-06-11T02:05:27.165Z,98787.38
2018-06-11T02:07:55.638Z,98851.31
2018-06-11T02:10:24.126Z,98804.63
2018-06-11T02:12:52.833Z,98809.70
2018-06-11T02:15:21.349Z,98768.09
2018-06-11T02:17:49.834Z,98788.39
2018-06-11T02:20:18.814Z,98766.06
2018-06-11T02:22:47.310Z,98734.59
2018-06-11T02:25:15.778Z,98701.11
2018-06-11T02:27:44.304Z,98685.88
2018-06-11T02:30:12.761Z,98686.89
2018-06-11T02:32:41.259Z,98695.02
2018-06-11T02:35:09.753Z,98707.19
2018-06-11T02:37:39.431Z,98670.66
2018-06-11T02:40:07.965Z,98715.31
2018-06-11T02:42:36.630Z,98701.11
2018-06-11T02:45:06.085Z,98666.59
2018-06-11T02:47:34.795Z,98676.75
2018-06-11T02:50:03.313Z,98658.48
2018-06-11T02:52:31.859Z,98637.16
2018-06-11T02:55:00.340Z,98661.52
2018-06-11T02:57:28.837Z,98675.73
2018-06-11T02:59:57.379Z,98682.83
2018-06-11T03:02:25.863Z,98694.00
2018-06-11T03:04:54.394Z,98684.86
2018-06-11T03:07:22.890Z,98699.07
2018-06-11T03:09:51.383Z,98699.07
2018-06-11T03:12:20.415Z,98680.80
2018-06-11T03:14:48.916Z,98703.13
2018-06-11T03:17:17.447Z,98688.92
2018-06-11T03:19:45.959Z,98713.28
2018-06-11T03:22:14.455Z,98673.70
2018-06-11T03:24:42.965Z,98686.89
2018-06-11T03:27:11.584Z,98696.03
2018-06-11T03:29:40.075Z,98667.61
2018-06-11T03:32:08.567Z,98663.55
2018-06-11T03:34:37.082Z,98666.59
2018-06-11T03:37:05.630Z,98659.49
2018-06-11T03:39:34.167Z,98661.52
2018-06-11T03:42:02.659Z,98656.45
2018-06-11T03:44:31.220Z,98630.06
2018-06-11T03:46:59.798Z,98660.51
2018-06-11T03:49:28.286Z,98648.33
2018-06-11T03:51:56.798Z,98626.00
2018-06-11T03:54:25.315Z,98659.49
2018-06-11T03:56:53.883Z,98622.95
2018-06-11T03:59:22.357Z,98623.97
2018-06-11T04:01:50.867Z,98627.02
2018-06-11T04:04:19.443Z,98684.86
2018-06-11T04:06:47.998Z,98647.31
2018-06-11T04:09:16.553Z,98630.06
2018-06-11T04:11:45.100Z,98613.82
2018-06-11T04:14:13.656Z,98544.81
2018-06-11T04:16:42.406Z,98496.09
2018-06-11T04:19:10.876Z,98399.69
2018-06-11T04:21:39.479Z,98369.24
2018-06-11T04:24:08.070Z,98289.07
2018-06-11T04:26:36.553Z,98285.02
2018-06-11T04:29:05.135Z,98345.90
2018-06-11T04:31:33.689Z,98302.27
2018-06-11T04:34:02.328Z,98258.63
2018-06-11T04:36:30.817Z,98306.33
2018-06-11T04:38:59.322Z,98216.01
2018-06-11T04:41:27.981Z,98312.41
2018-06-11T04:43:56.506Z,98212.97
2018-06-11T04:46:25.006Z,98199.77
2018-06-11T04:48:53.566Z,98128.73
2018-06-11T04:51:22.054Z,98095.25
2018-06-11T04:53:50.550Z,97813.17
2018-06-11T04:56:19.108Z,97657.93
2018-06-11T04:58:47.704Z,97510.81
2018-06-11T05:01:16.354Z,97846.66
2018-06-11T05:03:44.907Z,97666.05
2018-06-11T05:06:13.423Z,97561.55
2018-06-11T05:08:42.122Z,97482.41
2018-06-11T05:11:10.632Z,97341.39
2018-06-11T05:13:39.149Z,97317.03
2018-06-11T05:16:07.674Z,97231.82
2018-06-11T05:18:36.176Z,97197.33
2018-06-11T05:21:05.109Z,97290.66
2018-06-11T05:23:33.665Z,97264.28
2018-06-11T05:26:02.164Z,97410.37
2018-06-11T05:33:19.869Z,97320.08
2018-06-11T05:35:49.427Z,97097.91
2018-06-11T05:38:18.339Z,97117.19
2018-06-11T05:40:46.830Z,97125.30
2018-06-11T05:43:15.305Z,97079.66
2018-06-11T05:45:43.846Z,97131.39
2018-06-11T05:48:12.446Z,97269.36
2018-06-11T05:50:40.928Z,96956.91
2018-06-11T05:53:09.867Z,97288.63
2018-06-11T05:55:38.406Z,97334.28
2018-06-11T05:58:06.959Z,97272.40
2018-06-11T06:00:35.510Z,97398.20
2018-06-11T06:03:04.086Z,97378.92
2018-06-11T06:05:32.631Z,97389.07
2018-06-11T06:08:01.270Z,97406.31
2018-06-11T06:10:29.754Z,97441.83
2018-06-11T06:12:58.319Z,97364.72
2018-06-11T06:15:27.091Z,97425.59
2018-06-11T06:17:55.596Z,97466.17
2018-06-11T06:20:24.096Z,97421.53
2018-06-11T06:22:52.614Z,97464.14
2018-06-11T06:25:21.211Z,97326.17
2018-06-11T06:27:49.753Z,97552.41
2018-06-11T06:30:18.250Z,97446.90
2018-06-11T06:32:46.745Z,97425.59
2018-06-11T06:35:15.247Z,97543.28
2018-06-11T06:37:43.781Z,97563.58
2018-06-11T06:40:12.659Z,97594.02
2018-06-11T06:42:41.142Z,97606.19
2018-06-11T06:45:09.621Z,97669.09
2018-06-11T06:47:38.182Z,97659.96
2018-06-11T06:50:06.719Z,97627.48
2018-06-11T06:52:35.222Z,97495.59
2018-06-11T06:55:03.948Z,97513.86
2018-06-11T06:57:32.462Z,97367.77
2018-06-11T07:00:00.943Z,97377.91
2018-06-11T07:02:29.430Z,97328.20
2018-06-11T07:04:57.925Z,97423.56
2018-06-11T07:07:26.412Z,97168.92
2018-06-11T07:09:54.954Z,97209.50
2018-06-11T07:12:23.910Z,97177.04
2018-06-11T07:14:52.402Z,97201.39
2018-06-11T07:17:20.954Z,97204.43
2018-06-11T07:19:49.517Z,97418.49
2018-06-11T07:22:18.031Z,97640.68
2018-06-11T07:24:46.527Z,97550.38
2018-06-11T07:27:15.168Z,97589.95
2018-06-11T07:29:43.738Z,97629.52
2018-06-11T07:32:12.246Z,97514.88
2018-06-11T07:34:40.753Z,97490.52
2018-06-11T07:37:09.317Z,97522.98
2018-06-11T07:39:37.899Z,97485.45
2018-06-11T07:42:06.501Z,97535.16
2018-06-11T07:44:35.044Z,97508.78
2018-06-11T07:47:03.841Z,97517.92
2018-06-11T07:49:32.390Z,97452.98
2018-06-11T07:52:00.868Z,97542.27
2018-06-11T07:54:29.403Z,97467.19
2018-06-11T07:56:58.043Z,97463.13
2018-06-11T07:59:26.566Z,97413.42
2018-06-11T08:01:55.057Z,97386.02
2018-06-11T08:04:23.599Z,97346.45
2018-06-11T08:06:52.209Z,97395.16
2018-06-11T08:09:20.715Z,97485.45
2018-06-11T08:11:50.247Z,97509.80
2018-06-11T08:14:18.780Z,97537.20
2018-06-11T08:16:47.305Z,97487.48
2018-06-11T08:19:16.240Z,97417.48
2018-06-11T08:21:44.778Z,97334.28
2018-06-11T08:24:13.313Z,97436.75
2018-06-11T08:26:41.841Z,97373.85
2018-06-11T08:29:10.392Z,97246.02
2018-06-11T08:31:38.903Z,97354.58
2018-06-11T08:34:07.430Z,97435.73
2018-06-11T08:36:36.028Z,97325.16
2018-06-11T08:39:06.759Z,97329.21
2018-06-11T08:41:35.255Z,97369.80
2018-06-11T08:44:04.201Z,97348.48
2018-06-11T08:46:32.841Z,97337.33
2018-06-11T08:49:01.338Z,97317.03
2018-06-11T08:51:30.089Z,97392.11
2018-06-11T08:53:58.655Z,97369.80
2018-06-11T08:56:27.234Z,97248.05
2018-06-11T08:58:55.799Z,97147.62
2018-06-11T09:01:24.314Z,97160.81
2018-06-11T09:03:52.827Z,97065.45
2018-06-11T09:06:21.363Z,97115.16
2018-06-11T09:08:49.929Z,97022.84
2018-06-11T09:11:18.421Z,97091.83
2018-06-11T09:13:46.966Z,97070.52
2018-06-11T09:16:15.936Z,97130.38
2018-06-11T09:18:44.449Z,97210.52
2018-06-11T09:21:12.954Z,97149.66
2018-06-11T09:23:41.452Z,97199.36
2018-06-11T09:26:09.946Z,97164.87
2018-06-11T09:28:38.459Z,97185.16
2018-06-11T09:31:07.028Z,97267.33
2018-06-11T09:33:35.906Z,97255.16
2018-06-11T09:36:04.495Z,97197.33
2018-06-11T09:38:32.998Z,97175.01
2018-06-11T09:41:01.564Z,97180.08
2018-06-11T09:43:30.066Z,97196.31
2018-06-11T09:45:58.578Z,97252.11
2018-06-11T09:48:27.057Z,97271.39
2018-06-11T09:50:55.627Z,97266.31
2018-06-11T09:53:24.161Z,97246.02
2018-06-11T09:55:53.008Z,97261.23
2018-06-11T09:58:21.739Z,97295.73
2018-06-11T10:00:50.402Z,97329.21
2018-06-11T10:03:18.908Z,97279.50
2018-06-11T10:05:47.394Z,97278.48
2018-06-11T10:08:16.075Z,97187.19
2018-06-11T10:10:44.558Z,97177.04
2018-06-11T10:13:13.066Z,97148.63
2018-06-11T10:15:41.661Z,97070.52
2018-06-11T10:18:10.184Z,97021.83
2018-06-11T10:20:38.716Z,97059.36
2018-06-11T10:23:07.439Z,96955.89
2018-06-11T10:25:35.937Z,96924.45
2018-06-11T10:28:04.498Z,96908.22
2018-06-11T10:30:33.127Z,96874.74
2018-06-11T10:33:01.619Z,96874.74
2018-06-11T10:35:30.145Z,96970.09
2018-06-11T10:37:58.683Z,96957.92
2018-06-11T10:40:27.174Z,96821.99
2018-06-11T10:42:55.678Z,96860.54
2018-06-11T10:45:24.166Z,96844.31
2018-06-11T10:47:52.898Z,96755.05
2018-06-11T10:50:21.367Z,96859.53
2018-06-11T10:52:49.971Z,96803.73
2018-06-11T10:55:18.695Z,96824.02
2018-06-11T10:57:47.403Z,96714.47
2018-06-11T11:00:15.899Z,96651.59
2018-06-11T11:02:44.581Z,96732.73
2018-06-11T11:05:13.101Z,96814.89
2018-06-11T11:07:41.607Z,96740.84
2018-06-11T11:10:10.119Z,96792.58
2018-06-11T11:12:38.813Z,96716.50
2018-06-11T11:15:07.487Z,96873.73
2018-06-11T11:17:35.994Z,96906.19
2018-06-11T11:20:04.754Z,96836.20
2018-06-11T11:22:33.787Z,96813.88
2018-06-11T11:25:02.721Z,96869.67
2018-06-11T11:27:31.276Z,96934.59
2018-06-11T11:29:59.772Z,96938.65
2018-06-11T11:32:28.272Z,96837.20
2018-06-11T11:34:56.793Z,96956.91
2018-06-11T11:37:25.282Z,96818.95
2018-06-11T11:39:53.961Z,96807.80
2018-06-11T11:42:22.447Z,96842.28
2018-06-11T11:44:50.930Z,96842.28
2018-06-11T11:47:19.647Z,96793.59
2018-06-11T11:49:48.147Z,96884.89
2018-06-11T11:52:16.623Z,96879.81
2018-06-11T11:54:45.773Z,96833.16
2018-06-11T11:57:15.758Z,96896.05
2018-06-11T11:59:44.370Z,96861.55
2018-06-11T12:02:12.859Z,96788.52
2018-06-11T12:04:41.326Z,96783.45
2018-06-11T12:07:09.829Z,96860.54
2018-06-11T12:09:38.322Z,96864.59
2018-06-11T12:12:06.880Z,96939.66
2018-06-11T12:14:35.420Z,96871.70
2018-06-11T12:17:04.493Z,96856.48
2018-06-11T12:19:33.177Z,96802.72
2018-06-11T12:22:01.654Z,96804.75
2018-06-11T12:24:30.133Z,96709.41
2018-06-11T12:26:59.218Z,96824.02
2018-06-11T12:29:27.850Z,96794.61
2018-06-11T12:31:56.358Z,96757.08
2018-06-11T12:34:24.842Z,96811.85
2018-06-11T12:36:53.402Z,96861.55
2018-06-11T12:39:21.877Z,96851.41
2018-06-11T12:41:50.562Z,96889.95
2018-06-11T12:44:19.158Z,96887.93
2018-06-11T12:46:47.641Z,96819.97
2018-06-11T12:49:16.150Z,96754.03
2018-06-11T12:51:44.643Z,96660.72
2018-06-11T12:54:13.682Z,96662.74
2018-06-11T12:56:42.263Z,96713.46
2018-06-11T12:59:10.733Z,96813.88
2018-06-11T13:01:39.259Z,96804.75
2018-06-11T13:04:07.871Z,96832.14
2018-06-11T13:06:36.622Z,96845.33
2018-06-11T13:09:07.456Z,96855.47
2018-06-11T13:11:36.026Z,96839.23
2018-06-11T13:14:04.666Z,96806.78
2018-06-11T13:16:33.187Z,96800.69
2018-06-11T13:19:01.823Z,96863.58
2018-06-11T13:21:30.555Z,96897.06
2018-06-11T13:23:59.043Z,96866.63
2018-06-11T13:26:27.518Z,96828.08
2018-06-11T13:28:56.117Z,96866.63
2018-06-11T13:31:24.614Z,96837.20
2018-06-11T13:33:53.540Z,96869.67
2018-06-11T13:36:22.036Z,96873.73
2018-06-11T13:38:50.553Z,96839.23
2018-06-11T13:41:19.525Z,96839.23
2018-06-11T13:43:48.045Z,96867.64
2018-06-11T13:46:16.523Z,96887.93
2018-06-11T13:48:45.071Z,96845.33
2018-06-11T13:51:13.566Z,96790.55
2018-06-11T13:53:42.079Z,96819.97
2018-06-11T13:56:11.105Z,96790.55
2018-06-11T13:58:39.646Z,96727.66
2018-06-11T14:01:08.250Z,96704.33
2018-06-11T14:03:36.761Z,96714.47
2018-06-11T14:06:05.739Z,96689.12
2018-06-11T14:08:34.280Z,96731.72
2018-06-11T14:11:02.766Z,96763.16
2018-06-11T14:13:31.297Z,96778.38
2018-06-11T14:15:59.819Z,96645.50
2018-06-11T14:18:28.336Z,96677.95
2018-06-11T14:20:56.883Z,96740.84
2018-06-11T14:23:25.431Z,96782.44
2018-06-11T14:25:53.969Z,96674.91
2018-06-11T14:28:22.461Z,96664.77
2018-06-11T14:30:50.949Z,96715.48
2018-06-11T14:33:20.439Z,96712.44
2018-06-11T14:35:48.992Z,96720.56
2018-06-11T14:38:17.506Z,96735.77
2018-06-11T14:40:46.124Z,96757.08
2018-06-11T14:43:14.703Z,96763.16
2018-06-11T14:45:43.675Z,96798.66
2018-06-11T14:48:12.296Z,96733.75
2018-06-11T14:50:40.847Z,96682.02
2018-06-11T14:53:09.432Z,96812.87
2018-06-11T14:55:38.072Z,96832.14
2018-06-11T14:58:06.814Z,96810.84
2018-06-11T15:00:35.629Z,96781.42
2018-06-11T15:03:04.243Z,96758.09
2018-06-11T15:05:32.739Z,96704.33
2018-06-11T15:08:01.245Z,96802.72
2018-06-11T15:10:29.756Z,96753.02
2018-06-11T15:12:58.310Z,96805.77
2018-06-11T15:15:26.969Z,96819.97
2018-06-11T15:17:55.474Z,96745.92
2018-06-11T15:20:23.995Z,96715.48
2018-06-11T15:22:52.592Z,96722.59
2018-06-11T15:25:21.099Z,96739.83
2018-06-11T15:27:49.599Z,96763.16
2018-06-11T15:30:18.125Z,96745.92
2018-06-11T15:32:46.614Z,96783.45
2018-06-11T15:35:15.176Z,96791.56
2018-06-11T15:37:43.680Z,96753.02
2018-06-11T15:40:12.243Z,96691.14
2018-06-11T15:42:40.798Z,96748.96
2018-06-11T15:45:09.325Z,96778.38
2018-06-11T15:47:37.827Z,96749.97
2018-06-11T15:50:06.498Z,96706.36
2018-06-11T15:52:35.029Z,96741.86
2018-06-11T15:55:03.510Z,96683.03
2018-06-11T15:57:32.486Z,96733.75
2018-06-11T16:00:00.983Z,96790.55
2018-06-11T16:02:29.856Z,96712.44
2018-06-11T16:04:58.439Z,96682.02
2018-06-11T16:07:26.934Z,96721.58
2018-06-11T16:09:55.434Z,96707.38
2018-06-11T16:12:23.962Z,96741.86
2018-06-11T16:14:52.455Z,96729.69
2018-06-11T16:17:21.167Z,96789.53
2018-06-11T16:19:49.672Z,96695.20
2018-06-11T16:22:18.154Z,96752.00
2018-06-11T16:24:46.678Z,96723.60
2018-06-11T16:27:15.170Z,96726.64
2018-06-11T16:29:43.944Z,96701.29
2018-06-11T16:32:12.449Z,96656.66
2018-06-11T16:34:40.961Z,96648.55
2018-06-11T16:37:09.603Z,96592.75
2018-06-11T16:39:38.140Z,96662.74
2018-06-11T16:42:06.734Z,96619.13
2018-06-11T16:44:35.369Z,96661.73
2018-06-11T16:47:03.885Z,96615.07
2018-06-11T16:49:32.382Z,96664.77
2018-06-11T16:52:00.944Z,96699.26
2018-06-11T16:54:29.462Z,96714.47
2018-06-11T16:56:58.038Z,96654.63
2018-06-11T16:59:26.666Z,96612.03
2018-06-11T17:01:55.186Z,96622.17
2018-06-11T17:04:23.707Z,96661.73
2018-06-11T17:06:52.245Z,96738.81
2018-06-11T17:09:20.802Z,96732.73
2018-06-11T17:11:49.293Z,96704.33
2018-06-11T17:14:17.786Z,96791.56
2018-06-11T17:19:27.903Z,96790.55
2018-06-11T17:21:56.418Z,96825.03
2018-06-11T17:24:24.940Z,96858.52
2018-06-11T17:26:53.469Z,96863.58
2018-06-11T17:29:22.474Z,96916.33
2018-06-11T17:31:50.967Z,96896.05
2018-06-11T17:34:19.483Z,96904.16
2018-06-11T17:36:47.999Z,96905.17
2018-06-11T17:39:16.594Z,96962.99
2018-06-11T17:41:45.115Z,96978.20
2018-06-11T17:44:13.659Z,97017.77
2018-06-11T17:46:42.154Z,97011.69
2018-06-11T17:49:10.684Z,97026.91
2018-06-11T17:51:39.743Z,96952.85
2018-06-11T17:54:08.257Z,96958.94
2018-06-11T17:56:36.765Z,96954.88
2018-06-11T17:59:05.317Z,96984.30
2018-06-11T18:01:34.027Z,97046.17
2018-06-11T18:04:02.578Z,97031.97
2018-06-11T18:06:31.247Z,97043.13
2018-06-11T18:08:59.811Z,97096.90
2018-06-11T18:11:28.330Z,97095.88
2018-06-11T18:13:56.895Z,97133.42
2018-06-11T18:16:25.406Z,97121.24
2018-06-11T18:18:53.944Z,97192.26
2018-06-11T18:21:22.479Z,97206.46
2018-06-11T18:23:50.970Z,97200.38
2018-06-11T18:26:19.802Z,97200.38
2018-06-11T18:28:48.309Z,97214.58
2018-06-11T18:31:16.793Z,97184.14
2018-06-11T18:33:45.347Z,97217.62
2018-06-11T18:36:14.752Z,97287.62
2018-06-11T18:38:43.490Z,97321.09
2018-06-11T18:41:12.030Z,97323.13
2018-06-11T18:43:40.626Z,97377.91
2018-06-11T18:46:09.179Z,97374.86
2018-06-11T18:48:37.722Z,97379.94
2018-06-11T18:51:06.246Z,97371.82
2018-06-11T18:53:35.147Z,97390.09
2018-06-11T18:56:03.697Z,97372.84
2018-06-11T18:58:32.194Z,97376.89
2018-06-11T19:01:00.772Z,97360.66
2018-06-11T19:03:29.266Z,97285.59
2018-06-11T19:05:57.758Z,97264.28
2018-06-11T19:08:26.306Z,97285.59
2018-06-11T19:10:56.585Z,97367.77
2018-06-11T19:13:25.817Z,97416.46
2018-06-11T19:15:54.298Z,97454.00
2018-06-11T19:18:22.822Z,97373.85
2018-06-11T19:20:51.409Z,97415.45
2018-06-11T19:23:19.898Z,97443.85
2018-06-11T19:25:48.406Z,97349.50
2018-06-11T19:28:16.977Z,97437.77
2018-06-11T19:30:45.504Z,97487.48
2018-06-11T19:33:14.119Z,97541.25
2018-06-11T19:35:42.771Z,97608.22
2018-06-11T19:38:11.358Z,97632.56
2018-06-11T19:40:39.907Z,97658.95
2018-06-11T19:43:08.831Z,97738.08
2018-06-11T19:45:37.387Z,97741.12
2018-06-11T19:48:06.191Z,97744.17
2018-06-11T19:50:34.823Z,97796.94
2018-06-11T19:53:03.420Z,97751.27
2018-06-11T19:55:32.111Z,97816.21
2018-06-11T19:58:00.599Z,97772.58
2018-06-11T20:00:29.126Z,97849.70
2018-06-11T20:02:57.731Z,97868.98
2018-06-11T20:05:26.238Z,97815.20
2018-06-11T20:07:54.722Z,97881.15
2018-06-11T20:10:23.243Z,97911.59
2018-06-11T20:12:51.750Z,97920.72
2018-06-11T20:15:20.743Z,97937.97
2018-06-11T20:17:49.247Z,97953.20
2018-06-11T20:20:17.757Z,97966.38
2018-06-11T20:22:46.639Z,97988.70
2018-06-11T20:25:15.147Z,98011.03
2018-06-11T20:27:43.629Z,98006.97
2018-06-11T20:30:12.447Z,98014.08
2018-06-11T20:32:40.966Z,98012.05
2018-06-11T20:35:09.653Z,98031.33
2018-06-11T20:37:38.311Z,98002.91
2018-06-11T20:40:06.893Z,98058.72
2018-06-11T20:42:35.382Z,98050.60
2018-06-11T20:45:04.417Z,98070.90
2018-06-11T20:47:32.956Z,98061.77
2018-06-11T20:50:01.451Z,98121.63
2018-06-11T20:52:30.034Z,98096.27
2018-06-11T20:54:58.535Z,98141.93
2018-06-11T20:57:27.656Z,98153.09
2018-06-11T20:59:56.173Z,98131.78
2018-06-11T21:02:24.715Z,98137.88
2018-06-11T21:04:53.244Z,98135.84
2018-06-11T21:07:21.754Z,98159.18
2018-06-11T21:09:50.333Z,98137.88
2018-06-11T21:12:18.878Z,98173.39
2018-06-11T21:14:47.379Z,98175.42
2018-06-11T21:17:15.891Z,98181.51
2018-06-11T21:19:44.905Z,98203.83
2018-06-11T21:22:13.567Z,98192.67
2018-06-11T21:24:42.127Z,98169.33
2018-06-11T21:27:10.647Z,98192.67
2018-06-11T21:29:39.167Z,98198.76
2018-06-11T21:32:08.117Z,98193.69
2018-06-11T21:34:36.622Z,98229.20
2018-06-11T21:37:05.315Z,98239.34
2018-06-11T21:39:33.839Z,98245.44
2018-06-11T21:42:02.411Z,98254.57
2018-06-11T21:44:32.295Z,98223.11
2018-06-11T21:47:01.232Z,98239.34
2018-06-11T21:49:30.099Z,98224.13
2018-06-11T21:51:58.642Z,98213.98
2018-06-11T21:54:27.174Z,98232.24
2018-06-11T21:56:55.714Z,98269.80
2018-06-11T21:59:24.261Z,98249.50
2018-06-11T22:01:52.821Z,98238.34
2018-06-11T22:04:21.395Z,98226.16
2018-06-11T22:06:49.962Z,98257.61
2018-06-11T22:09:18.501Z,98261.67
2018-06-11T22:11:47.026Z,98227.17
2018-06-11T22:14:16.782Z,98250.52
2018-06-11T22:16:45.338Z,98256.59
2018-06-11T22:19:13.870Z,98243.41
2018-06-11T22:21:42.409Z,98212.97
2018-06-11T22:24:11.391Z,98232.24
2018-06-11T22:26:39.925Z,98221.09
2018-06-11T22:29:08.494Z,98208.91
2018-06-11T22:31:37.187Z,98168.31
2018-06-11T22:34:05.749Z,98167.30
2018-06-11T22:36:34.269Z,98177.45
2018-06-11T22:39:02.938Z,98172.37
2018-06-11T22:41:31.523Z,98162.23
2018-06-11T22:44:00.019Z,98137.88
2018-06-11T22:46:28.529Z,98150.05
2018-06-11T22:48:57.470Z,98160.20
2018-06-11T22:51:25.965Z,98161.21
2018-06-11T22:53:54.582Z,98168.31
2018-06-11T22:56:23.131Z,98122.66
2018-06-11T22:58:51.713Z,98127.73
2018-06-11T23:01:20.411Z,98103.37
2018-06-11T23:03:48.922Z,98116.56
2018-06-11T23:06:17.470Z,98147.00
2018-06-11T23:08:45.983Z,98159.18
2018-06-11T23:11:14.511Z,98120.63
2018-06-11T23:13:43.467Z,98166.28
2018-06-11T23:16:12.019Z,98167.30
2018-06-11T23:18:40.543Z,98172.37
2018-06-11T23:21:09.540Z,98185.56
2018-06-11T23:23:38.104Z,98158.17
2018-06-11T23:26:06.643Z,98164.26
2018-06-11T23:28:35.202Z,98174.41
2018-06-11T23:31:03.731Z,98205.86
2018-06-11T23:33:32.790Z,98168.31
2018-06-11T23:36:01.334Z,98207.89
2018-06-11T23:38:29.859Z,98199.77
2018-06-11T23:40:58.398Z,98196.73
2018-06-11T23:43:26.902Z,98188.61
2018-06-11T23:45:55.426Z,98210.94
2018-06-11T23:48:23.960Z,98211.95
2018-06-11T23:50:52.514Z,98225.14
2018-06-11T23:53:21.019Z,98216.01
2018-06-11T23:55:49.545Z,98219.05
2018-06-11T23:58:18.242Z,98243.41
